This is the latest recevied weather packets stored in our database for station/object OE-11213. If no packets are shown the sender has not sent any weather packets the latest 10 day(s).
| Time | Temp. | Humidity | Pressure | Rain* | Wind** | Luminosity | Snow |
|---|---|---|---|---|---|---|---|
| 1788404131 | 16.11° C | 93% | 1021.7 hPa | 0 mm | - | 0 W/m² | - |
| 1788403531 | 16.11° C | 93% | 1021.7 hPa | 0 mm | - | 0 W/m² | - |
| 1788402931 | 16.67° C | 91% | 1021.7 hPa | 0 mm | - | 0 W/m² | - |
| 1788402331 | 16.67° C | 91% | 1021.7 hPa | 0 mm | - | 0 W/m² | - |
| 1788401504 | 16.67° C | 90% | 1021.8 hPa | 0 mm | - | 0 W/m² | - |
| 1788381331 | 18.89° C | 83% | 1020 hPa | 0 mm | - | 0 W/m² | - |
| 1788380731 | 19.44° C | 79% | 1020.2 hPa | 0 mm | - | 0 W/m² | - |
| 1788379531 | 19.44° C | 79% | 1020.1 hPa | 0 mm | - | 0 W/m² | - |
| 1788377731 | 20° C | 88% | 1019.8 hPa | 0 mm | - | 0 W/m² | - |
| 1788377131 | 20.56° C | 84% | 1019.6 hPa | 0 mm | - | 0 W/m² | - |
| 1788376304 | 21.11° C | 81% | 1019.4 hPa | 0 mm | - | 0 W/m² | - |
| 1788375931 | 20.56° C | 84% | 1019.4 hPa | 0 mm | - | 0 W/m² | - |
| 1788374505 | 21.11° C | 80% | 1018.9 hPa | 0 mm | - | 0 W/m² | - |
| 1788374131 | 21.11° C | 81% | 1018.7 hPa | 0 mm | - | 0 W/m² | - |
| 1788373531 | 21.67° C | 80% | 1018.7 hPa | 0 mm | - | 0 W/m² | - |
| 1788371732 | 22.78° C | 67% | 1018.1 hPa | 0 mm | - | 0 W/m² | - |
| 1788370904 | 22.78° C | 67% | 1018.1 hPa | 0 mm | - | 7 W/m² | - |
| 1788370531 | 22.78° C | 66% | 1017.9 hPa | 0 mm | - | 7 W/m² | - |
| 1788368731 | 23.33° C | 65% | 1017.4 hPa | 0 mm | - | 22 W/m² | - |
| 1788366331 | 23.89° C | 63% | 1016.9 hPa | 0 mm | - | 181 W/m² | - |
| 1788365504 | 24.44° C | 64% | 1016.9 hPa | 0 mm | - | 225 W/m² | - |
| 1788365131 | 24.44° C | 63% | 1017 hPa | 0 mm | - | 268 W/m² | - |
| 1788364531 | 24.44° C | 63% | 1016.9 hPa | 0 mm | - | 319 W/m² | - |
| 1788362731 | 25° C | 62% | 1016.8 hPa | 0 mm | - | 276 W/m² | - |
| 1788361531 | 24.44° C | 63% | 1017 hPa | 0 mm | - | 334 W/m² | - |
* Rain latest hour (hover to see other rain measurements)
** Current wind speed in m/s (hover to see current wind gust speed)